createdAt,value
2022-09-25T00:00:42.773Z,18.96
2022-09-25T00:01:47.002Z,18.96
2022-09-25T00:02:49.314Z,18.96
2022-09-25T00:03:51.718Z,18.97
2022-09-25T00:04:53.390Z,18.96
2022-09-25T00:06:00.732Z,18.96
2022-09-25T00:07:02.942Z,18.97
2022-09-25T00:08:05.742Z,18.97
2022-09-25T00:09:10.199Z,18.95
2022-09-25T00:10:12.399Z,18.95
2022-09-25T00:11:15.737Z,18.94
2022-09-25T00:12:17.665Z,18.93
2022-09-25T00:13:20.568Z,18.92
2022-09-25T00:14:22.298Z,18.90
2022-09-25T00:15:24.162Z,18.91
2022-09-25T00:16:27.286Z,18.90
2022-09-25T00:17:28.759Z,18.88
2022-09-25T00:18:49.045Z,18.88
2022-09-25T00:19:50.609Z,18.87
2022-09-25T00:21:00.110Z,18.88
2022-09-25T00:22:01.580Z,18.87
2022-09-25T00:23:03.081Z,18.87
2022-09-25T00:24:05.547Z,18.87
2022-09-25T00:25:07.207Z,18.86
2022-09-25T00:26:08.847Z,18.86
2022-09-25T00:27:10.380Z,18.86
2022-09-25T00:28:15.188Z,18.86
2022-09-25T00:29:20.542Z,18.87
2022-09-25T00:30:22.219Z,18.87
2022-09-25T00:31:24.869Z,18.87
2022-09-25T00:32:26.698Z,18.86
2022-09-25T00:33:29.714Z,18.88
2022-09-25T00:34:31.475Z,18.87
2022-09-25T00:35:34.068Z,18.87
2022-09-25T00:36:36.278Z,18.88
2022-09-25T00:37:38.148Z,18.87
2022-09-25T00:38:40.552Z,18.88
2022-09-25T00:39:42.113Z,18.89
2022-09-25T00:40:43.845Z,18.89
2022-09-25T00:41:45.548Z,18.88
2022-09-25T00:42:49.482Z,18.87
2022-09-25T00:43:51.969Z,18.89
2022-09-25T00:44:56.479Z,18.88
2022-09-25T00:45:58.018Z,18.89
2022-09-25T00:46:59.586Z,18.87
2022-09-25T00:48:01.295Z,18.87
2022-09-25T00:49:07.367Z,18.87
2022-09-25T00:50:32.151Z,18.87
2022-09-25T00:51:41.612Z,18.89
2022-09-25T00:52:43.948Z,18.88
2022-09-25T00:53:45.963Z,18.89
2022-09-25T00:54:52.684Z,18.88
2022-09-25T00:55:55.174Z,18.89
2022-09-25T00:56:57.221Z,18.88
2022-09-25T00:57:59.259Z,18.88
2022-09-25T00:59:01.005Z,18.88
2022-09-25T01:00:07.044Z,18.88
2022-09-25T01:01:09.727Z,18.88
2022-09-25T01:02:14.583Z,18.87
2022-09-25T01:03:17.003Z,18.86
2022-09-25T01:04:18.549Z,18.87
2022-09-25T01:05:21.375Z,18.86
2022-09-25T01:06:23.080Z,18.86
2022-09-25T01:07:24.550Z,18.86
2022-09-25T01:08:26.250Z,18.86
2022-09-25T01:09:28.026Z,18.86
2022-09-25T01:10:29.557Z,18.86
2022-09-25T01:11:31.142Z,18.86
2022-09-25T01:12:33.629Z,18.86
2022-09-25T01:13:35.253Z,18.84
2022-09-25T01:14:37.098Z,18.84
2022-09-25T01:16:01.373Z,18.84
2022-09-25T01:17:14.925Z,18.84
2022-09-25T01:18:29.637Z,18.84
2022-09-25T01:19:43.263Z,18.83
2022-09-25T01:21:14.042Z,18.84
2022-09-25T01:22:26.714Z,18.81
2022-09-25T01:23:33.945Z,18.81
2022-09-25T01:24:40.505Z,18.82
2022-09-25T01:25:45.431Z,18.80
2022-09-25T01:26:59.573Z,18.81
2022-09-25T01:28:10.163Z,18.80
2022-09-25T01:29:12.502Z,18.79
2022-09-25T01:30:14.833Z,18.79
2022-09-25T01:31:18.443Z,18.78
2022-09-25T01:32:23.922Z,18.78
2022-09-25T01:33:33.718Z,18.76
2022-09-25T01:35:04.202Z,18.77
2022-09-25T01:36:08.713Z,18.74
2022-09-25T01:37:24.082Z,18.75
2022-09-25T01:38:34.532Z,18.74
2022-09-25T01:39:37.353Z,18.74
2022-09-25T01:40:41.034Z,18.72
2022-09-25T01:41:57.951Z,18.73
2022-09-25T01:43:00.769Z,18.72
2022-09-25T01:44:28.809Z,18.73
2022-09-25T01:45:36.582Z,18.72
2022-09-25T01:46:40.395Z,18.72
2022-09-25T01:47:43.208Z,18.72
2022-09-25T01:48:50.179Z,18.73
2022-09-25T01:49:53.710Z,18.72
2022-09-25T01:50:55.417Z,18.71
2022-09-25T01:51:57.841Z,18.71
2022-09-25T01:53:00.615Z,18.72
2022-09-25T01:54:04.730Z,18.70
2022-09-25T01:55:08.522Z,18.71
2022-09-25T01:56:36.891Z,18.71
2022-09-25T01:57:44.241Z,18.70
2022-09-25T01:58:55.600Z,18.69
2022-09-25T02:00:03.128Z,18.69
2022-09-25T02:01:18.639Z,18.68
2022-09-25T02:02:21.975Z,18.68
2022-09-25T02:03:46.999Z,18.67
2022-09-25T02:05:08.113Z,18.64
2022-09-25T02:06:11.502Z,18.64
2022-09-25T02:07:16.721Z,18.64
2022-09-25T02:08:23.266Z,18.63
2022-09-25T02:09:28.024Z,18.63
2022-09-25T02:10:37.783Z,18.63
2022-09-25T02:11:44.023Z,18.63
2022-09-25T02:12:48.136Z,18.62
2022-09-25T02:13:54.619Z,18.62
2022-09-25T02:14:59.991Z,18.62
2022-09-25T02:16:07.110Z,18.62
2022-09-25T02:17:10.941Z,18.60
2022-09-25T02:18:32.290Z,18.60
2022-09-25T02:19:52.974Z,18.59
2022-09-25T02:21:12.895Z,18.58
2022-09-25T02:22:19.910Z,18.57
2022-09-25T02:23:24.082Z,18.55
2022-09-25T02:24:44.532Z,18.56
2022-09-25T02:25:48.448Z,18.53
2022-09-25T02:26:51.005Z,18.54
2022-09-25T02:27:53.699Z,18.54
2022-09-25T02:28:55.474Z,18.54
2022-09-25T02:29:57.610Z,18.53
2022-09-25T02:31:02.129Z,18.54
2022-09-25T02:32:05.044Z,18.52
2022-09-25T02:33:06.532Z,18.50
2022-09-25T02:34:13.776Z,18.50
2022-09-25T02:35:16.427Z,18.48
2022-09-25T02:36:24.083Z,18.47
2022-09-25T02:37:26.316Z,18.47
2022-09-25T02:38:27.905Z,18.46
2022-09-25T02:39:30.092Z,18.45
2022-09-25T02:40:36.770Z,18.44
2022-09-25T02:41:38.227Z,18.43
2022-09-25T02:42:45.092Z,18.43
2022-09-25T02:43:58.734Z,18.43
2022-09-25T02:45:26.116Z,18.42
2022-09-25T02:46:43.390Z,18.42
2022-09-25T02:47:47.813Z,18.42
2022-09-25T02:49:09.527Z,18.42
2022-09-25T02:50:13.482Z,18.43
2022-09-25T02:51:24.828Z,18.44
2022-09-25T02:52:26.296Z,18.44
2022-09-25T02:53:36.072Z,18.44
2022-09-25T02:54:47.704Z,18.44
2022-09-25T02:56:12.462Z,18.45
2022-09-25T02:57:23.072Z,18.46
2022-09-25T02:58:26.885Z,18.47
2022-09-25T02:59:29.574Z,18.47
2022-09-25T03:00:32.160Z,18.46
2022-09-25T03:01:33.817Z,18.47
2022-09-25T03:02:35.565Z,18.48
2022-09-25T03:03:38.331Z,18.46
2022-09-25T03:04:40.605Z,18.46
2022-09-25T03:05:42.570Z,18.46
2022-09-25T03:06:44.283Z,18.46
2022-09-25T03:08:05.043Z,18.46
2022-09-25T03:09:07.230Z,18.46
2022-09-25T03:10:09.804Z,18.44
2022-09-25T03:11:13.303Z,18.45
2022-09-25T03:12:15.600Z,18.45
2022-09-25T03:13:22.238Z,18.44
2022-09-25T03:14:29.185Z,18.43
2022-09-25T03:15:30.848Z,18.43
2022-09-25T03:16:57.366Z,18.43
2022-09-25T03:17:59.531Z,18.42
2022-09-25T03:19:01.689Z,18.42
2022-09-25T03:20:03.307Z,18.35
2022-09-25T03:21:05.017Z,18.42
2022-09-25T03:22:07.219Z,18.41
2022-09-25T03:23:09.006Z,18.41
2022-09-25T03:24:10.714Z,18.42
2022-09-25T03:25:12.272Z,18.41
2022-09-25T03:26:13.739Z,18.42
2022-09-25T03:27:15.265Z,18.41
2022-09-25T03:28:16.714Z,18.40
2022-09-25T03:29:18.206Z,18.41
2022-09-25T03:30:19.818Z,18.41
2022-09-25T03:31:21.398Z,18.42
2022-09-25T03:32:23.422Z,18.41
2022-09-25T03:33:25.257Z,18.41
2022-09-25T03:34:26.758Z,18.41
2022-09-25T03:35:28.180Z,18.40
2022-09-25T03:36:29.993Z,18.40
2022-09-25T03:37:32.374Z,18.39
2022-09-25T03:38:36.073Z,18.40
2022-09-25T03:39:37.577Z,18.39
2022-09-25T03:40:39.065Z,18.38
2022-09-25T03:41:40.622Z,18.39
2022-09-25T03:42:45.520Z,18.38
2022-09-25T03:43:48.402Z,18.38
2022-09-25T03:44:49.903Z,18.38
2022-09-25T03:45:51.497Z,18.38
2022-09-25T03:46:53.312Z,18.27
2022-09-25T03:47:56.124Z,18.38
2022-09-25T03:48:58.327Z,18.38
2022-09-25T03:50:00.268Z,18.38
2022-09-25T03:51:03.305Z,18.38
2022-09-25T03:52:04.988Z,18.37
2022-09-25T03:53:07.336Z,18.37
2022-09-25T03:54:09.071Z,18.38
2022-09-25T03:55:12.020Z,18.37
2022-09-25T03:56:14.594Z,18.38
2022-09-25T03:57:16.285Z,18.38
2022-09-25T03:58:18.360Z,18.38
2022-09-25T03:59:20.323Z,18.38
2022-09-25T04:00:24.272Z,18.37
2022-09-25T04:01:26.398Z,18.37
2022-09-25T04:02:28.814Z,18.37
2022-09-25T04:03:30.650Z,18.37
2022-09-25T04:04:32.772Z,18.37
2022-09-25T04:05:35.159Z,18.37
2022-09-25T04:06:37.083Z,18.36
2022-09-25T04:07:38.945Z,18.36
2022-09-25T04:08:40.896Z,18.36
2022-09-25T04:09:42.800Z,18.36
2022-09-25T04:10:44.648Z,18.35
2022-09-25T04:11:46.667Z,18.35
2022-09-25T04:12:48.492Z,18.34
2022-09-25T04:13:50.377Z,18.34
2022-09-25T04:14:52.645Z,18.34
2022-09-25T04:15:54.453Z,18.34
2022-09-25T04:16:56.761Z,18.33
2022-09-25T04:18:01.170Z,18.31
2022-09-25T04:19:07.480Z,18.32
2022-09-25T04:20:09.936Z,18.32
2022-09-25T04:21:11.963Z,18.31
2022-09-25T04:22:13.466Z,18.32
2022-09-25T04:23:15.334Z,18.33
2022-09-25T04:24:35.608Z,18.32
2022-09-25T04:25:37.125Z,18.33
2022-09-25T04:26:38.657Z,18.32
2022-09-25T04:27:40.580Z,18.32
2022-09-25T04:28:45.352Z,18.33
2022-09-25T04:29:47.030Z,18.33
2022-09-25T04:30:48.680Z,18.33
2022-09-25T04:32:10.482Z,18.34
2022-09-25T04:33:31.106Z,18.33
2022-09-25T04:34:33.024Z,18.32
2022-09-25T04:35:35.641Z,18.31
2022-09-25T04:36:38.569Z,18.31
2022-09-25T04:37:40.648Z,18.31
2022-09-25T04:38:42.379Z,18.30
2022-09-25T04:39:43.942Z,18.31
2022-09-25T04:40:46.069Z,18.31
2022-09-25T04:41:47.843Z,18.31
2022-09-25T04:42:49.336Z,18.30
2022-09-25T04:43:50.811Z,18.30
2022-09-25T04:44:53.053Z,18.31
2022-09-25T04:45:54.624Z,18.31
2022-09-25T04:46:56.124Z,18.31
2022-09-25T04:47:58.808Z,18.30
2022-09-25T04:49:00.221Z,18.31
2022-09-25T04:50:01.675Z,18.31
2022-09-25T04:51:03.611Z,18.31
2022-09-25T04:52:05.428Z,18.30
2022-09-25T04:53:06.931Z,18.31
2022-09-25T04:54:08.408Z,18.31
2022-09-25T04:55:09.931Z,18.30
2022-09-25T04:56:15.551Z,18.30
2022-09-25T04:57:38.805Z,18.30
2022-09-25T04:58:40.154Z,18.32
2022-09-25T04:59:41.740Z,18.31
2022-09-25T05:00:43.279Z,18.31
2022-09-25T05:01:44.845Z,18.31
2022-09-25T05:02:46.917Z,18.31
2022-09-25T05:03:50.178Z,18.29
2022-09-25T05:04:51.899Z,18.30
2022-09-25T05:05:53.749Z,18.29
2022-09-25T05:06:55.262Z,18.30
2022-09-25T05:08:00.262Z,18.30
2022-09-25T05:09:03.601Z,18.30
2022-09-25T05:10:05.887Z,18.30
2022-09-25T05:11:09.104Z,18.29
2022-09-25T05:12:11.745Z,18.30
2022-09-25T05:13:13.630Z,18.30
2022-09-25T05:14:15.421Z,18.30
2022-09-25T05:15:18.088Z,18.28
2022-09-25T05:16:19.835Z,18.28
2022-09-25T05:17:21.976Z,18.27
2022-09-25T05:18:24.366Z,18.23
2022-09-25T05:19:25.940Z,18.26
2022-09-25T05:20:27.527Z,18.27
2022-09-25T05:21:29.156Z,18.27
2022-09-25T05:22:30.638Z,18.27
2022-09-25T05:23:32.235Z,18.27
2022-09-25T05:24:39.163Z,18.27
2022-09-25T05:25:43.653Z,18.26
2022-09-25T05:26:50.836Z,18.26
2022-09-25T05:27:54.503Z,18.26
2022-09-25T05:28:56.021Z,18.26
2022-09-25T05:29:57.623Z,18.26
2022-09-25T05:31:02.900Z,18.26
2022-09-25T05:32:04.505Z,18.25
2022-09-25T05:33:06.073Z,18.26
2022-09-25T05:34:09.135Z,18.26
2022-09-25T05:35:11.858Z,18.26
2022-09-25T05:36:13.468Z,18.26
2022-09-25T05:37:14.994Z,18.26
2022-09-25T05:38:16.567Z,18.24
2022-09-25T05:39:18.040Z,18.26
2022-09-25T05:40:21.207Z,18.27
2022-09-25T05:41:23.624Z,18.26
2022-09-25T05:42:25.215Z,18.26
2022-09-25T05:43:26.887Z,18.26
2022-09-25T05:44:28.515Z,18.27
2022-09-25T05:45:29.938Z,18.27
2022-09-25T05:46:31.576Z,18.26
2022-09-25T05:47:33.209Z,18.27
2022-09-25T05:48:34.785Z,18.27
2022-09-25T05:49:36.254Z,18.27
2022-09-25T05:50:37.730Z,18.28
2022-09-25T05:51:39.225Z,18.27
2022-09-25T05:52:47.253Z,18.29
2022-09-25T05:53:49.074Z,18.28
2022-09-25T05:54:50.734Z,18.29
2022-09-25T05:55:55.389Z,18.29
2022-09-25T05:56:56.942Z,18.29
2022-09-25T05:58:04.397Z,18.28
2022-09-25T05:59:05.887Z,18.30
2022-09-25T06:00:09.069Z,18.30
2022-09-25T06:01:14.159Z,18.30
2022-09-25T06:02:16.188Z,18.31
2022-09-25T06:03:17.873Z,18.30
2022-09-25T06:04:19.421Z,18.30
2022-09-25T06:05:20.956Z,18.31
2022-09-25T06:06:26.663Z,18.30
2022-09-25T06:07:29.060Z,18.33
2022-09-25T06:08:32.973Z,18.33
2022-09-25T06:09:34.853Z,18.32
2022-09-25T06:10:36.358Z,18.33
2022-09-25T06:11:37.907Z,18.33
2022-09-25T06:12:39.383Z,18.33
2022-09-25T06:13:49.541Z,18.34
2022-09-25T06:14:53.494Z,18.33
2022-09-25T06:15:55.167Z,18.33
2022-09-25T06:16:59.527Z,18.34
2022-09-25T06:18:01.068Z,18.35
2022-09-25T06:19:02.816Z,18.35
2022-09-25T06:20:04.598Z,18.35
2022-09-25T06:21:06.116Z,18.35
2022-09-25T06:22:08.525Z,18.35
2022-09-25T06:23:10.091Z,18.35
2022-09-25T06:24:11.875Z,18.36
2022-09-25T06:25:15.842Z,18.36
2022-09-25T06:26:17.324Z,18.37
2022-09-25T06:27:18.880Z,18.38
2022-09-25T06:28:20.426Z,18.38
2022-09-25T06:29:21.907Z,18.38
2022-09-25T06:30:23.712Z,18.39
2022-09-25T06:31:25.631Z,18.40
2022-09-25T06:32:27.453Z,18.40
2022-09-25T06:33:28.965Z,18.41
2022-09-25T06:34:30.463Z,18.40
2022-09-25T06:35:32.004Z,18.41
2022-09-25T06:36:33.487Z,18.43
2022-09-25T06:37:35.028Z,18.41
2022-09-25T06:38:36.579Z,18.42
2022-09-25T06:39:38.064Z,18.42
2022-09-25T06:40:41.450Z,18.42
2022-09-25T06:41:44.027Z,18.42
2022-09-25T06:42:46.553Z,18.43
2022-09-25T06:43:51.426Z,18.43
2022-09-25T06:44:52.952Z,18.42
2022-09-25T06:45:54.497Z,18.44
2022-09-25T06:46:56.122Z,18.44
2022-09-25T06:48:01.385Z,18.43
2022-09-25T06:49:02.893Z,18.44
2022-09-25T06:50:04.970Z,18.44
2022-09-25T06:51:10.346Z,18.44
2022-09-25T06:52:12.505Z,18.44
2022-09-25T06:53:14.777Z,18.44
2022-09-25T06:54:16.677Z,18.45
2022-09-25T06:55:18.156Z,18.44
2022-09-25T06:56:19.939Z,18.45
2022-09-25T06:57:21.693Z,18.45
2022-09-25T06:58:23.325Z,18.45
2022-09-25T06:59:27.461Z,18.45
2022-09-25T07:00:29.008Z,18.45
2022-09-25T07:01:30.768Z,18.46
2022-09-25T07:02:51.893Z,18.46
2022-09-25T07:03:53.913Z,18.45
2022-09-25T07:04:55.721Z,18.45
2022-09-25T07:05:59.785Z,18.46
2022-09-25T07:07:01.812Z,18.44
2022-09-25T07:08:03.752Z,18.44
2022-09-25T07:09:05.278Z,18.42
2022-09-25T07:10:07.072Z,18.43
2022-09-25T07:11:10.344Z,18.44
2022-09-25T07:12:11.887Z,18.44
2022-09-25T07:13:19.844Z,18.44
2022-09-25T07:14:22.050Z,18.43
2022-09-25T07:15:23.563Z,18.44
2022-09-25T07:16:26.665Z,18.44
2022-09-25T07:17:28.396Z,18.43
2022-09-25T07:18:29.867Z,18.44
2022-09-25T07:19:34.225Z,18.45
2022-09-25T07:20:36.918Z,18.45
2022-09-25T07:21:39.123Z,18.44
2022-09-25T07:22:41.020Z,18.46
2022-09-25T07:23:42.603Z,18.46
2022-09-25T07:24:44.196Z,18.46
2022-09-25T07:25:46.159Z,18.46
2022-09-25T07:26:47.728Z,18.48
2022-09-25T07:27:50.148Z,18.48
2022-09-25T07:28:55.593Z,18.48
2022-09-25T07:29:57.519Z,18.50
2022-09-25T07:31:10.260Z,18.49
2022-09-25T07:32:12.037Z,18.51
2022-09-25T07:33:13.718Z,18.52
2022-09-25T07:34:16.489Z,18.51
2022-09-25T07:35:18.690Z,18.52
2022-09-25T07:36:20.306Z,18.52
2022-09-25T07:37:21.978Z,18.54
2022-09-25T07:38:23.461Z,18.56
2022-09-25T07:39:24.995Z,18.56
2022-09-25T07:40:29.188Z,18.57
2022-09-25T07:41:30.926Z,18.58
2022-09-25T07:42:32.502Z,18.58
2022-09-25T07:43:36.306Z,18.57
2022-09-25T07:44:38.673Z,18.57
2022-09-25T07:45:45.659Z,18.58
2022-09-25T07:46:47.348Z,18.58
2022-09-25T07:47:48.855Z,18.58
2022-09-25T07:48:50.667Z,18.59
2022-09-25T07:49:52.331Z,18.59
2022-09-25T07:50:55.614Z,18.60
2022-09-25T07:51:57.103Z,18.61
2022-09-25T07:52:59.136Z,18.62
2022-09-25T07:54:01.155Z,18.64
2022-09-25T07:55:02.626Z,18.66
2022-09-25T07:56:06.846Z,18.66
2022-09-25T07:57:09.120Z,18.67
2022-09-25T07:58:10.694Z,18.68
2022-09-25T07:59:12.160Z,18.70
2022-09-25T08:00:16.452Z,18.69
2022-09-25T08:01:18.175Z,18.70
2022-09-25T08:02:20.063Z,18.70
2022-09-25T08:03:21.952Z,18.71
2022-09-25T08:04:23.410Z,18.72
2022-09-25T08:05:25.561Z,18.74
2022-09-25T08:06:27.097Z,18.76
2022-09-25T08:07:29.232Z,18.77
2022-09-25T08:08:30.821Z,18.77
2022-09-25T08:09:32.317Z,18.78
2022-09-25T08:10:33.824Z,18.79
2022-09-25T08:11:35.677Z,18.81
2022-09-25T08:12:37.499Z,18.82
2022-09-25T08:13:40.011Z,18.83
2022-09-25T08:14:42.064Z,18.84
2022-09-25T08:15:43.571Z,18.86
2022-09-25T08:16:45.134Z,18.88
2022-09-25T08:17:47.272Z,18.89
2022-09-25T08:18:49.164Z,18.90
2022-09-25T08:19:51.033Z,18.92
2022-09-25T08:20:52.767Z,18.93
2022-09-25T08:21:54.876Z,18.93
2022-09-25T08:22:57.625Z,18.95
2022-09-25T08:23:59.270Z,18.95
2022-09-25T08:25:04.988Z,18.96
2022-09-25T08:26:09.161Z,18.98
2022-09-25T08:27:10.761Z,18.99
2022-09-25T08:28:12.222Z,19.01
2022-09-25T08:29:13.748Z,19.01
2022-09-25T08:30:15.880Z,19.04
2022-09-25T08:31:19.694Z,19.05
2022-09-25T08:32:21.245Z,19.07
2022-09-25T08:33:22.921Z,19.07
2022-09-25T08:34:41.319Z,19.09
2022-09-25T08:35:43.271Z,19.09
2022-09-25T08:36:44.843Z,19.08
2022-09-25T08:37:48.626Z,19.10
2022-09-25T08:38:50.117Z,19.08
2022-09-25T08:39:51.764Z,19.08
2022-09-25T08:40:58.186Z,19.07
2022-09-25T08:42:00.764Z,19.08
2022-09-25T08:43:02.280Z,19.08
2022-09-25T08:44:06.727Z,19.08
2022-09-25T08:45:32.810Z,19.09
2022-09-25T08:47:02.082Z,19.09
2022-09-25T08:50:03.637Z,19.09
2022-09-25T08:51:07.776Z,19.11
2022-09-25T08:52:11.343Z,19.11
2022-09-25T08:53:19.906Z,19.09
2022-09-25T08:54:24.775Z,19.11
2022-09-25T08:55:48.550Z,19.11
2022-09-25T08:56:54.109Z,19.11
2022-09-25T08:57:55.855Z,19.11
2022-09-25T08:59:01.722Z,19.13
2022-09-25T09:00:22.618Z,19.13
2022-09-25T09:01:29.328Z,19.11
2022-09-25T09:02:36.665Z,19.13
2022-09-25T09:03:40.828Z,19.13
2022-09-25T09:04:46.551Z,19.14
2022-09-25T09:05:51.565Z,19.14
2022-09-25T09:07:25.320Z,19.15
2022-09-25T09:08:20.312Z,19.15
2022-09-25T09:09:25.489Z,19.14
2022-09-25T09:10:38.218Z,19.14
2022-09-25T09:11:42.680Z,19.15
2022-09-25T09:12:54.452Z,19.14
2022-09-25T09:14:05.728Z,19.14
2022-09-25T09:15:16.212Z,19.14
2022-09-25T09:16:28.946Z,19.14
2022-09-25T09:17:32.348Z,19.15
2022-09-25T09:18:37.526Z,19.14
2022-09-25T09:19:39.079Z,19.14
2022-09-25T09:20:46.336Z,19.14
2022-09-25T09:22:13.771Z,19.14
2022-09-25T09:23:16.873Z,19.16
2022-09-25T09:24:22.179Z,19.15
2022-09-25T09:25:25.882Z,19.16
2022-09-25T09:26:31.328Z,19.16
2022-09-25T09:27:40.489Z,19.17
2022-09-25T09:28:50.247Z,19.18
2022-09-25T09:30:05.436Z,19.20
2022-09-25T09:31:11.024Z,19.20
2022-09-25T09:32:31.367Z,19.20
2022-09-25T09:33:36.574Z,19.20
2022-09-25T09:35:04.766Z,19.21
2022-09-25T09:36:10.775Z,19.21
2022-09-25T09:37:15.889Z,19.22
2022-09-25T09:38:28.357Z,19.23
2022-09-25T09:39:32.669Z,19.23
2022-09-25T09:40:47.233Z,19.23
2022-09-25T09:41:54.934Z,19.24
2022-09-25T09:43:03.635Z,19.25
2022-09-25T09:44:14.250Z,19.25
2022-09-25T09:45:16.341Z,19.27
2022-09-25T09:46:24.284Z,19.30
2022-09-25T09:47:38.673Z,19.32
2022-09-25T09:48:43.321Z,19.33
2022-09-25T09:49:45.962Z,19.35
2022-09-25T09:50:52.639Z,19.37
2022-09-25T09:51:57.325Z,19.40
2022-09-25T09:53:01.217Z,19.42
2022-09-25T09:54:13.378Z,19.45
2022-09-25T09:55:19.607Z,19.47
2022-09-25T09:56:28.469Z,19.49
2022-09-25T09:57:34.374Z,19.51
2022-09-25T09:58:46.448Z,19.54
2022-09-25T10:00:08.224Z,19.55
2022-09-25T10:01:39.854Z,19.57
2022-09-25T10:03:01.426Z,19.61
2022-09-25T10:04:18.795Z,19.60
2022-09-25T10:05:38.581Z,19.64
2022-09-25T10:06:43.481Z,19.63
2022-09-25T10:07:45.022Z,19.63
2022-09-25T10:08:46.518Z,19.64
2022-09-25T10:09:49.594Z,19.66
2022-09-25T10:10:53.895Z,19.68
2022-09-25T10:12:03.594Z,19.71
2022-09-25T10:13:07.338Z,19.73
2022-09-25T10:14:09.394Z,19.75
2022-09-25T10:15:16.004Z,19.79
2022-09-25T10:16:23.794Z,19.81
2022-09-25T10:17:25.331Z,19.82
2022-09-25T10:18:28.529Z,19.84
2022-09-25T10:19:30.045Z,19.85
2022-09-25T10:20:50.543Z,19.88
2022-09-25T10:22:05.328Z,19.89
2022-09-25T10:23:08.295Z,19.89
2022-09-25T10:24:11.376Z,19.91
2022-09-25T10:25:12.850Z,19.93
2022-09-25T10:26:26.415Z,19.94
2022-09-25T10:27:28.988Z,19.95
2022-09-25T10:28:32.385Z,19.94
2022-09-25T10:29:33.893Z,19.95
2022-09-25T10:30:35.375Z,19.96
2022-09-25T10:31:38.121Z,19.97
2022-09-25T10:32:46.655Z,19.99
2022-09-25T10:34:01.553Z,20.01
2022-09-25T10:35:03.145Z,20.02
2022-09-25T10:36:04.736Z,20.03
2022-09-25T10:37:14.937Z,20.04
2022-09-25T10:38:19.152Z,20.05
2022-09-25T10:39:43.527Z,20.04
2022-09-25T10:40:47.685Z,20.05
2022-09-25T10:41:49.239Z,20.05
2022-09-25T10:42:53.219Z,20.06
2022-09-25T10:43:55.745Z,20.06
2022-09-25T10:44:58.172Z,20.06
2022-09-25T10:46:13.554Z,20.05
2022-09-25T10:47:36.635Z,20.04
2022-09-25T10:48:57.081Z,20.03
2022-09-25T10:50:14.068Z,20.02
2022-09-25T10:51:18.095Z,20.00
2022-09-25T10:52:19.837Z,19.98
2022-09-25T10:53:28.281Z,19.96
2022-09-25T10:54:29.989Z,19.95
2022-09-25T10:55:51.252Z,19.95
2022-09-25T10:56:53.768Z,19.94
2022-09-25T10:58:10.594Z,19.93
2022-09-25T10:59:21.447Z,19.93
2022-09-25T11:00:24.280Z,19.93
2022-09-25T11:01:35.477Z,19.91
2022-09-25T11:02:41.466Z,19.93
2022-09-25T11:03:50.937Z,19.91
2022-09-25T11:04:52.632Z,19.93
2022-09-25T11:05:55.168Z,19.91
2022-09-25T11:06:58.261Z,19.90
2022-09-25T11:08:00.804Z,19.89
2022-09-25T11:09:02.290Z,19.89
2022-09-25T11:10:03.895Z,19.89
2022-09-25T11:11:05.722Z,19.89
2022-09-25T11:12:07.535Z,19.88
2022-09-25T11:13:09.661Z,19.88
2022-09-25T11:14:22.531Z,19.86
2022-09-25T11:15:26.331Z,19.85
2022-09-25T11:16:42.665Z,19.84
2022-09-25T11:17:44.255Z,19.86
2022-09-25T11:18:46.915Z,19.84
2022-09-25T11:19:48.572Z,19.83
2022-09-25T11:20:54.414Z,19.82
2022-09-25T11:22:00.071Z,19.81
2022-09-25T11:23:08.384Z,19.80
2022-09-25T11:24:20.759Z,19.79
2022-09-25T11:25:27.236Z,19.77
2022-09-25T11:26:33.463Z,19.77
2022-09-25T11:27:36.768Z,19.77
2022-09-25T11:28:44.587Z,19.77
2022-09-25T11:29:48.971Z,19.75
2022-09-25T11:31:17.154Z,19.75
2022-09-25T11:32:20.366Z,19.76
2022-09-25T11:33:24.507Z,19.75
2022-09-25T11:34:57.170Z,19.76
2022-09-25T11:36:01.325Z,19.75
2022-09-25T11:37:06.211Z,19.75
2022-09-25T11:38:45.678Z,19.75
2022-09-25T11:40:07.185Z,19.75
2022-09-25T11:41:14.932Z,19.76
2022-09-25T11:42:23.991Z,19.76
2022-09-25T11:43:43.662Z,19.76
2022-09-25T11:45:11.179Z,19.76
2022-09-25T11:46:23.399Z,19.76
2022-09-25T11:47:54.558Z,19.75
2022-09-25T11:49:01.396Z,19.75
2022-09-25T11:50:03.124Z,19.76
2022-09-25T11:51:18.149Z,19.76
2022-09-25T11:52:19.607Z,19.77
2022-09-25T11:53:24.235Z,19.76
2022-09-25T11:54:34.470Z,19.78
2022-09-25T11:56:15.351Z,19.78
2022-09-25T11:57:30.710Z,19.78
2022-09-25T11:58:44.363Z,19.78
2022-09-25T11:59:48.886Z,19.80
2022-09-25T12:00:56.243Z,19.81
2022-09-25T12:02:19.957Z,19.80
2022-09-25T12:03:44.531Z,19.81
2022-09-25T12:04:46.577Z,19.82
2022-09-25T12:05:48.204Z,19.81
2022-09-25T12:06:59.298Z,19.82
2022-09-25T12:08:05.094Z,19.81
2022-09-25T12:09:10.272Z,19.78
2022-09-25T12:10:23.679Z,19.80
2022-09-25T12:11:47.972Z,19.77
2022-09-25T12:13:07.972Z,19.77
2022-09-25T12:14:15.299Z,19.78
2022-09-25T12:15:39.901Z,19.78
2022-09-25T12:16:48.035Z,19.80
2022-09-25T12:17:58.839Z,19.80
2022-09-25T12:19:01.111Z,19.81
2022-09-25T12:20:21.701Z,19.81
2022-09-25T12:21:34.562Z,19.81
2022-09-25T12:22:48.898Z,19.80
2022-09-25T12:24:11.571Z,19.80
2022-09-25T12:25:25.532Z,19.80
2022-09-25T12:26:45.555Z,19.81
2022-09-25T12:27:53.230Z,19.83
2022-09-25T12:29:06.082Z,19.83
2022-09-25T12:30:20.528Z,19.83
2022-09-25T12:31:27.660Z,19.84
2022-09-25T12:32:32.887Z,19.83
2022-09-25T12:33:54.745Z,19.85
2022-09-25T12:35:07.478Z,19.88
2022-09-25T12:36:20.205Z,19.90
2022-09-25T12:37:26.803Z,19.92
2022-09-25T12:38:41.433Z,19.92
2022-09-25T12:39:58.153Z,19.94
2022-09-25T12:41:11.206Z,19.97
2022-09-25T12:42:35.952Z,20.00
2022-09-25T12:43:47.690Z,20.03
2022-09-25T12:45:00.383Z,20.05
2022-09-25T12:46:07.071Z,20.06
2022-09-25T12:47:27.917Z,20.08
2022-09-25T12:48:43.968Z,20.09
2022-09-25T12:49:47.361Z,20.08
2022-09-25T12:50:55.584Z,20.08
2022-09-25T12:51:58.559Z,20.07
2022-09-25T12:53:04.872Z,20.06
2022-09-25T12:54:26.171Z,20.05
2022-09-25T12:55:27.727Z,20.04
2022-09-25T12:56:46.676Z,20.03
2022-09-25T12:58:03.020Z,20.01
2022-09-25T12:59:15.965Z,19.98
2022-09-25T13:00:21.259Z,19.97
2022-09-25T13:01:26.975Z,19.96
2022-09-25T13:02:34.427Z,19.96
2022-09-25T13:03:43.449Z,19.94
2022-09-25T13:05:03.679Z,19.94
2022-09-25T13:06:37.407Z,19.93
2022-09-25T13:07:41.460Z,19.91
2022-09-25T13:08:51.618Z,19.90
2022-09-25T13:09:53.245Z,19.89
2022-09-25T13:11:06.131Z,19.86
2022-09-25T13:12:20.103Z,19.85
2022-09-25T13:13:22.429Z,19.82
2022-09-25T13:14:41.876Z,19.81
2022-09-25T13:15:43.362Z,19.82
2022-09-25T13:16:46.559Z,19.82
2022-09-25T13:17:48.395Z,19.82
2022-09-25T13:19:09.024Z,19.81
2022-09-25T13:20:41.974Z,19.81
2022-09-25T13:21:43.524Z,19.80
2022-09-25T13:22:45.021Z,19.80
2022-09-25T13:23:48.105Z,19.79
2022-09-25T13:24:56.428Z,19.77
2022-09-25T13:26:01.967Z,19.74
2022-09-25T13:27:04.764Z,19.72
2022-09-25T13:28:07.296Z,19.73
2022-09-25T13:29:41.708Z,19.73
2022-09-25T13:30:45.027Z,19.74
2022-09-25T13:31:46.596Z,19.73
2022-09-25T13:32:51.786Z,19.73
2022-09-25T13:34:02.083Z,19.75
2022-09-25T13:35:05.034Z,19.75
2022-09-25T13:36:09.945Z,19.73
2022-09-25T13:37:12.147Z,19.74
2022-09-25T13:38:35.617Z,19.72
2022-09-25T13:39:56.863Z,19.72
2022-09-25T13:40:58.503Z,19.73
2022-09-25T13:42:04.221Z,19.75
2022-09-25T13:43:20.757Z,19.74
2022-09-25T13:44:40.627Z,19.75
2022-09-25T13:45:42.154Z,19.74
2022-09-25T13:46:43.686Z,19.74
2022-09-25T13:48:07.233Z,19.74
2022-09-25T13:49:28.266Z,19.73
2022-09-25T13:50:31.216Z,19.72
2022-09-25T13:51:35.746Z,19.69
2022-09-25T13:52:40.337Z,19.68
2022-09-25T13:53:59.944Z,19.66
2022-09-25T13:55:13.469Z,19.61
2022-09-25T13:56:18.572Z,19.59
2022-09-25T13:57:29.664Z,19.60
2022-09-25T13:58:34.466Z,19.61
2022-09-25T13:59:37.051Z,19.62
2022-09-25T14:00:38.551Z,19.62
2022-09-25T14:01:40.198Z,19.62
2022-09-25T14:02:46.515Z,19.61
2022-09-25T14:03:49.620Z,19.61
2022-09-25T14:04:51.185Z,19.62
2022-09-25T14:05:52.646Z,19.60
2022-09-25T14:06:57.231Z,19.61
2022-09-25T14:08:00.490Z,19.61
2022-09-25T14:09:05.935Z,19.60
2022-09-25T14:10:08.340Z,19.60
2022-09-25T14:11:10.615Z,19.59
2022-09-25T14:12:19.366Z,19.59
2022-09-25T14:13:23.858Z,19.59